createdAt,value
2023-01-17T00:00:06.080Z,1.30
2023-01-17T00:02:32.866Z,1.30
2023-01-17T00:05:18.278Z,1.30
2023-01-17T00:08:03.363Z,1.30
2023-01-17T00:10:30.053Z,1.30
2023-01-17T00:12:58.206Z,1.40
2023-01-17T00:15:25.700Z,1.40
2023-01-17T00:17:53.238Z,1.40
2023-01-17T00:20:40.151Z,1.30
2023-01-17T00:23:36.032Z,1.30
2023-01-17T00:26:03.650Z,1.10
2023-01-17T00:28:34.875Z,1.10
2023-01-17T00:31:01.950Z,1.00
2023-01-17T00:33:28.701Z,0.90
2023-01-17T00:35:56.657Z,0.80
2023-01-17T00:38:24.526Z,0.70
2023-01-17T00:40:51.103Z,0.70
2023-01-17T00:43:37.833Z,0.70
2023-01-17T00:46:24.576Z,0.70
2023-01-17T00:49:09.798Z,0.60
2023-01-17T00:51:55.631Z,0.70
2023-01-17T00:54:40.611Z,0.60
2023-01-17T00:57:26.613Z,0.60
2023-01-17T01:00:11.795Z,0.60
2023-01-17T01:02:57.539Z,0.60
2023-01-17T01:05:43.251Z,0.60
2023-01-17T01:08:41.500Z,0.60
2023-01-17T01:11:27.781Z,0.60
2023-01-17T01:14:13.425Z,0.50
2023-01-17T01:16:58.988Z,0.50
2023-01-17T01:19:44.092Z,0.50
2023-01-17T01:22:29.326Z,0.60
2023-01-17T01:25:14.544Z,0.50
2023-01-17T01:27:59.586Z,0.40
2023-01-17T01:30:44.858Z,0.40
2023-01-17T01:33:21.349Z,0.40
2023-01-17T01:35:52.463Z,0.50
2023-01-17T01:38:19.896Z,0.40
2023-01-17T01:40:47.770Z,0.40
2023-01-17T01:43:15.438Z,0.30
2023-01-17T01:45:45.399Z,0.30
2023-01-17T01:48:12.033Z,0.30
2023-01-17T01:50:38.799Z,0.20
2023-01-17T01:53:06.169Z,0.20
2023-01-17T01:55:38.348Z,0.30
2023-01-17T01:58:10.379Z,0.20
2023-01-17T02:00:38.324Z,0.20
2023-01-17T02:03:07.952Z,0.30
2023-01-17T02:05:35.319Z,0.30
2023-01-17T02:08:07.793Z,0.30
2023-01-17T02:10:36.407Z,0.30
2023-01-17T02:13:03.887Z,0.30
2023-01-17T02:15:50.781Z,0.20
2023-01-17T02:18:32.816Z,0.10
2023-01-17T02:20:59.450Z,0.10
2023-01-17T02:23:45.169Z,0.10
2023-01-17T02:26:17.993Z,0.10
2023-01-17T02:29:06.858Z,0.10
2023-01-17T02:31:36.390Z,0.10
2023-01-17T02:34:22.075Z,0.10
2023-01-17T02:37:04.647Z,0.10
2023-01-17T02:39:40.194Z,0.10
2023-01-17T02:42:10.691Z,0.10
2023-01-17T02:44:41.858Z,0.10
2023-01-17T02:47:23.020Z,0.10
2023-01-17T02:49:50.791Z,0.10
2023-01-17T02:52:23.475Z,0.10
2023-01-17T02:54:53.257Z,0.10
2023-01-17T02:57:26.008Z,0.10
2023-01-17T03:00:07.977Z,0.10
2023-01-17T03:02:47.195Z,0.10
2023-01-17T03:05:19.550Z,0.10
2023-01-17T03:07:48.296Z,0.10
2023-01-17T03:10:16.271Z,0.10
2023-01-17T03:12:43.067Z,0.10
2023-01-17T03:15:14.595Z,0.10
2023-01-17T03:17:44.361Z,0.10
2023-01-17T03:20:11.159Z,0.00
2023-01-17T03:22:37.788Z,0.00
2023-01-17T03:25:04.813Z,0.00
2023-01-17T03:27:31.580Z,0.10
2023-01-17T03:29:58.250Z,0.10
2023-01-17T03:32:24.873Z,0.20
2023-01-17T03:34:51.546Z,0.30
2023-01-17T03:37:18.273Z,0.40
2023-01-17T03:39:45.007Z,0.40
2023-01-17T03:42:11.757Z,0.50
2023-01-17T03:44:38.393Z,0.50
2023-01-17T03:47:05.074Z,0.50
2023-01-17T03:49:31.680Z,0.60
2023-01-17T03:51:58.394Z,0.60
2023-01-17T03:54:25.059Z,0.70
2023-01-17T03:56:51.637Z,0.60
2023-01-17T03:59:18.258Z,0.60
2023-01-17T04:01:45.016Z,0.70
2023-01-17T04:04:11.838Z,0.60
2023-01-17T04:06:38.441Z,0.60
2023-01-17T04:09:05.162Z,0.60
2023-01-17T04:11:31.829Z,0.60
2023-01-17T04:13:58.423Z,0.60
2023-01-17T04:16:28.140Z,0.70
2023-01-17T04:18:54.951Z,0.70
2023-01-17T04:21:21.700Z,0.80
2023-01-17T04:23:48.343Z,0.80
2023-01-17T04:26:15.173Z,0.80
2023-01-17T04:28:41.837Z,0.80
2023-01-17T04:31:13.138Z,0.80
2023-01-17T04:33:39.855Z,0.80
2023-01-17T04:36:06.634Z,0.80
2023-01-17T04:38:33.312Z,0.80
2023-01-17T04:41:00.022Z,0.80
2023-01-17T04:43:26.748Z,0.70
2023-01-17T04:45:56.778Z,0.70
2023-01-17T04:48:27.293Z,0.70
2023-01-17T04:51:04.255Z,0.70
2023-01-17T04:53:30.905Z,0.60
2023-01-17T04:55:57.809Z,0.60
2023-01-17T04:58:24.546Z,0.60
2023-01-17T05:00:51.787Z,0.60
2023-01-17T05:03:18.976Z,0.60
2023-01-17T05:05:45.828Z,0.60
2023-01-17T05:08:12.497Z,0.60
2023-01-17T05:10:39.523Z,0.60
2023-01-17T05:13:06.209Z,0.60
2023-01-17T05:15:32.989Z,0.60
2023-01-17T05:18:01.902Z,0.60
2023-01-17T05:20:28.808Z,0.60
2023-01-17T05:22:56.294Z,0.50
2023-01-17T05:25:23.596Z,0.60
2023-01-17T05:27:50.290Z,0.50
2023-01-17T05:30:17.731Z,0.50
2023-01-17T05:32:51.214Z,0.50
2023-01-17T05:35:19.727Z,0.50
2023-01-17T05:37:49.216Z,0.50
2023-01-17T05:40:16.816Z,0.50
2023-01-17T05:42:47.327Z,0.50
2023-01-17T05:45:16.870Z,0.50
2023-01-17T05:47:44.519Z,0.50
2023-01-17T05:50:12.254Z,0.50
2023-01-17T05:52:38.928Z,0.50
2023-01-17T05:55:07.451Z,0.40
2023-01-17T05:57:34.647Z,0.50
2023-01-17T06:00:05.719Z,0.50
2023-01-17T06:02:32.396Z,0.50
2023-01-17T06:04:59.044Z,0.60
2023-01-17T06:07:25.684Z,0.60
2023-01-17T06:09:52.371Z,0.60
2023-01-17T06:12:20.093Z,0.60
2023-01-17T06:14:47.489Z,0.60
2023-01-17T06:17:14.101Z,0.60
2023-01-17T06:19:40.750Z,0.60
2023-01-17T06:22:07.448Z,0.70
2023-01-17T06:24:34.232Z,0.70
2023-01-17T06:27:00.876Z,0.80
2023-01-17T06:29:27.537Z,0.80
2023-01-17T06:31:54.274Z,0.80
2023-01-17T06:34:20.963Z,0.80
2023-01-17T06:36:47.678Z,0.80
2023-01-17T06:39:15.188Z,0.70
2023-01-17T06:41:43.005Z,0.70
2023-01-17T06:44:17.906Z,0.70
2023-01-17T06:46:45.175Z,0.80
2023-01-17T06:49:11.896Z,0.80
2023-01-17T06:51:38.546Z,0.80
2023-01-17T06:54:05.506Z,0.80
2023-01-17T06:56:32.490Z,0.70
2023-01-17T06:58:59.115Z,0.70
2023-01-17T07:01:25.834Z,0.80
2023-01-17T07:03:52.703Z,0.80
2023-01-17T07:06:19.558Z,0.80
2023-01-17T07:08:47.492Z,0.80
2023-01-17T07:11:14.277Z,0.70
2023-01-17T07:13:41.614Z,0.70
2023-01-17T07:16:09.132Z,0.70
2023-01-17T07:18:35.828Z,0.70
2023-01-17T07:21:15.399Z,0.80
2023-01-17T07:23:42.321Z,0.80
2023-01-17T07:26:09.016Z,0.80
2023-01-17T07:28:35.801Z,0.80
2023-01-17T07:31:07.199Z,0.70
2023-01-17T07:33:34.013Z,0.70
2023-01-17T07:36:06.309Z,0.70
2023-01-17T07:38:33.111Z,0.70
2023-01-17T07:41:00.405Z,0.60
2023-01-17T07:43:27.265Z,0.60
2023-01-17T07:45:54.202Z,0.60
2023-01-17T07:48:22.705Z,0.60
2023-01-17T07:50:56.510Z,0.50
2023-01-17T07:53:24.089Z,0.50
2023-01-17T07:55:50.838Z,0.60
2023-01-17T07:58:17.844Z,0.50
2023-01-17T08:00:44.951Z,0.60
2023-01-17T08:03:13.699Z,0.60
2023-01-17T08:05:40.917Z,0.70
2023-01-17T08:08:07.616Z,0.70
2023-01-17T08:10:34.261Z,0.60
2023-01-17T08:13:00.962Z,0.60
2023-01-17T08:15:27.734Z,0.60
2023-01-17T08:17:54.543Z,0.60
2023-01-17T08:20:21.348Z,0.60
2023-01-17T08:22:47.979Z,0.50
2023-01-17T08:25:14.635Z,0.50
2023-01-17T08:27:41.299Z,0.40
2023-01-17T08:30:08.374Z,0.50
2023-01-17T08:32:35.021Z,0.60
2023-01-17T08:35:03.768Z,0.60
2023-01-17T08:37:30.436Z,0.80
2023-01-17T08:39:57.081Z,0.90
2023-01-17T08:42:23.753Z,0.90
2023-01-17T08:44:50.469Z,1.00
2023-01-17T08:47:17.157Z,1.10
2023-01-17T08:49:44.041Z,1.20
2023-01-17T08:52:13.048Z,1.20
2023-01-17T08:54:39.838Z,1.20
2023-01-17T08:57:06.475Z,1.10
2023-01-17T08:59:33.100Z,1.00
2023-01-17T09:02:01.594Z,1.00
2023-01-17T09:04:38.356Z,1.10
2023-01-17T09:07:07.408Z,1.00
2023-01-17T09:09:34.045Z,1.10
2023-01-17T09:12:00.950Z,1.10
2023-01-17T09:14:27.580Z,1.10
2023-01-17T09:16:54.295Z,1.20
2023-01-17T09:19:21.095Z,1.40
2023-01-17T09:21:47.692Z,1.50
2023-01-17T09:24:14.399Z,1.60
2023-01-17T09:26:41.050Z,1.70
2023-01-17T09:29:07.763Z,1.80
2023-01-17T09:31:34.848Z,1.80
2023-01-17T09:34:01.596Z,1.90
2023-01-17T09:36:28.986Z,2.00
2023-01-17T09:38:56.725Z,2.00
2023-01-17T09:41:32.364Z,2.00
2023-01-17T09:43:58.991Z,2.00
2023-01-17T09:46:28.667Z,2.00
2023-01-17T09:49:09.354Z,2.00
2023-01-17T09:51:36.462Z,2.10
2023-01-17T09:54:03.080Z,2.20
2023-01-17T09:56:36.906Z,2.30
2023-01-17T09:59:33.053Z,2.50
2023-01-17T10:02:05.188Z,2.70
2023-01-17T10:05:07.595Z,2.80
2023-01-17T10:07:40.734Z,3.00
2023-01-17T10:10:26.075Z,3.10
2023-01-17T10:13:14.286Z,3.00
2023-01-17T10:15:44.612Z,3.00
2023-01-17T10:18:30.056Z,3.00
2023-01-17T10:21:01.129Z,3.00
2023-01-17T10:23:42.184Z,2.90
2023-01-17T10:26:11.297Z,2.90
2023-01-17T10:28:41.877Z,3.00
2023-01-17T10:31:12.950Z,3.10
2023-01-17T10:33:43.840Z,3.10
2023-01-17T10:36:15.376Z,3.30
2023-01-17T10:38:45.594Z,3.50
2023-01-17T10:41:24.754Z,3.60
2023-01-17T10:44:03.553Z,3.70
2023-01-17T10:46:43.030Z,3.90
2023-01-17T10:49:14.907Z,4.00
2023-01-17T10:52:04.092Z,4.10
2023-01-17T10:54:35.264Z,4.20
2023-01-17T10:57:02.026Z,4.20
2023-01-17T10:59:30.616Z,4.30
2023-01-17T11:01:58.296Z,4.30
2023-01-17T11:04:38.767Z,4.40
2023-01-17T11:07:12.184Z,4.40
2023-01-17T11:09:45.788Z,4.50
2023-01-17T11:12:17.797Z,4.50
2023-01-17T11:15:05.783Z,4.50
2023-01-17T11:17:33.230Z,4.50
2023-01-17T11:20:15.009Z,4.60
2023-01-17T11:22:43.128Z,4.60
2023-01-17T11:25:19.536Z,4.60
2023-01-17T11:27:57.061Z,4.60
2023-01-17T11:30:29.282Z,4.60
2023-01-17T11:33:08.780Z,4.60
2023-01-17T11:35:37.104Z,4.60
2023-01-17T11:38:12.110Z,4.60
2023-01-17T11:40:43.127Z,4.70
2023-01-17T11:43:14.301Z,4.60
2023-01-17T11:45:41.367Z,4.70
2023-01-17T11:48:07.962Z,4.70
2023-01-17T11:50:35.616Z,4.70
2023-01-17T11:53:06.891Z,4.70
2023-01-17T11:55:33.606Z,4.70
2023-01-17T11:58:00.269Z,4.80
2023-01-17T12:00:26.884Z,4.80
2023-01-17T12:03:05.826Z,4.80
2023-01-17T12:05:53.677Z,4.80
2023-01-17T12:08:23.365Z,4.90
2023-01-17T12:10:59.904Z,4.90
2023-01-17T12:14:00.094Z,4.90
2023-01-17T12:16:32.164Z,4.90
2023-01-17T12:19:18.482Z,4.90
2023-01-17T12:21:48.542Z,4.90
2023-01-17T12:24:15.593Z,4.90
2023-01-17T12:26:45.215Z,4.90
2023-01-17T12:29:21.042Z,5.00
2023-01-17T12:31:50.625Z,5.00
2023-01-17T12:34:30.268Z,5.00
2023-01-17T12:37:02.053Z,5.00
2023-01-17T12:39:36.272Z,5.10
2023-01-17T12:42:09.309Z,5.00
2023-01-17T12:44:54.827Z,5.00
2023-01-17T12:47:21.887Z,5.00
2023-01-17T12:50:15.021Z,5.00
2023-01-17T12:52:59.757Z,5.00
2023-01-17T12:55:38.604Z,5.00
2023-01-17T12:58:07.901Z,5.00
2023-01-17T13:00:38.985Z,4.90
2023-01-17T13:03:16.143Z,4.90
2023-01-17T13:05:45.930Z,4.90
2023-01-17T13:08:22.084Z,4.90
2023-01-17T13:10:51.980Z,4.90
2023-01-17T13:13:22.313Z,4.90
2023-01-17T13:15:49.663Z,4.90
2023-01-17T13:18:23.224Z,4.80
2023-01-17T13:21:08.809Z,4.80
2023-01-17T13:23:35.430Z,4.80
2023-01-17T13:26:03.187Z,4.70
2023-01-17T13:28:35.798Z,4.70
2023-01-17T13:31:21.421Z,4.70
2023-01-17T13:34:06.547Z,4.70
2023-01-17T13:36:44.392Z,4.80
2023-01-17T13:39:17.138Z,4.80
2023-01-17T13:42:03.192Z,4.80
2023-01-17T13:44:31.975Z,4.80
2023-01-17T13:46:58.731Z,4.80
2023-01-17T13:49:40.753Z,4.80
2023-01-17T13:52:12.211Z,4.80
2023-01-17T13:54:58.534Z,4.80
2023-01-17T13:57:30.234Z,4.80
2023-01-17T13:59:58.012Z,4.80
2023-01-17T14:02:38.872Z,4.80
2023-01-17T14:05:05.572Z,4.80
2023-01-17T14:07:33.116Z,4.70
2023-01-17T14:09:59.780Z,4.70
2023-01-17T14:12:32.776Z,4.70
2023-01-17T14:15:00.686Z,4.70
2023-01-17T14:17:34.147Z,4.60
2023-01-17T14:20:09.887Z,4.60
2023-01-17T14:22:38.195Z,4.60
2023-01-17T14:25:09.682Z,4.60
2023-01-17T14:27:40.099Z,4.60
2023-01-17T14:30:17.381Z,4.60
2023-01-17T14:32:59.357Z,4.60
2023-01-17T14:35:27.929Z,4.60
2023-01-17T14:37:54.720Z,4.60
2023-01-17T14:40:23.899Z,4.60
2023-01-17T14:42:54.291Z,4.60
2023-01-17T14:45:26.419Z,4.60
2023-01-17T14:47:56.698Z,4.70
2023-01-17T14:50:35.078Z,4.70
2023-01-17T14:53:10.808Z,4.70
2023-01-17T14:55:38.292Z,4.70
2023-01-17T14:58:05.010Z,4.80
2023-01-17T15:00:35.031Z,4.70
2023-01-17T15:03:02.305Z,4.70
2023-01-17T15:05:41.298Z,4.70
2023-01-17T15:08:18.280Z,4.60
2023-01-17T15:10:51.301Z,4.50
2023-01-17T15:13:26.029Z,4.50
2023-01-17T15:16:03.896Z,4.40
2023-01-17T15:18:36.142Z,4.30
2023-01-17T15:21:04.886Z,4.20
2023-01-17T15:23:43.468Z,4.10
2023-01-17T15:26:12.906Z,4.10
2023-01-17T15:28:41.164Z,4.00
2023-01-17T15:31:09.514Z,3.90
2023-01-17T15:33:37.936Z,3.80
2023-01-17T15:36:09.409Z,3.70
2023-01-17T15:38:39.319Z,3.70
2023-01-17T15:41:11.656Z,3.60
2023-01-17T15:43:57.581Z,3.50
2023-01-17T15:46:28.511Z,3.50
2023-01-17T15:49:07.075Z,3.40
2023-01-17T15:51:36.431Z,3.30
2023-01-17T15:54:21.834Z,3.30
2023-01-17T15:56:48.476Z,3.20
2023-01-17T15:59:30.409Z,3.20
2023-01-17T16:01:58.801Z,3.20
2023-01-17T16:04:26.664Z,3.10
2023-01-17T16:06:54.520Z,3.10
2023-01-17T16:09:22.478Z,3.00
2023-01-17T16:11:49.295Z,3.00
2023-01-17T16:14:15.993Z,2.90
2023-01-17T16:16:54.446Z,2.90
2023-01-17T16:19:21.517Z,2.80
2023-01-17T16:21:50.481Z,2.80
2023-01-17T16:24:17.260Z,2.80
2023-01-17T16:26:44.000Z,2.80
2023-01-17T16:29:10.680Z,2.70
2023-01-17T16:31:37.464Z,2.70
2023-01-17T16:34:09.721Z,2.70
2023-01-17T16:36:36.982Z,2.70
2023-01-17T16:39:12.526Z,2.60
2023-01-17T16:41:41.321Z,2.70
2023-01-17T16:44:08.186Z,2.60
2023-01-17T16:46:38.451Z,2.60
2023-01-17T16:49:05.293Z,2.70
2023-01-17T16:51:34.564Z,2.60
2023-01-17T16:54:01.310Z,2.60
2023-01-17T16:56:32.499Z,2.60
2023-01-17T16:59:01.585Z,2.60
2023-01-17T17:01:28.485Z,2.50
2023-01-17T17:04:13.060Z,2.50
2023-01-17T17:06:42.114Z,2.50
2023-01-17T17:09:08.799Z,2.50
2023-01-17T17:11:35.507Z,2.50
2023-01-17T17:14:03.498Z,2.50
2023-01-17T17:16:32.529Z,2.50
2023-01-17T17:19:04.088Z,2.50
2023-01-17T17:21:37.541Z,2.60
2023-01-17T17:24:04.454Z,2.60
2023-01-17T17:26:34.375Z,2.60
2023-01-17T17:29:01.542Z,2.60
2023-01-17T17:31:28.395Z,2.60
2023-01-17T17:33:59.557Z,2.60
2023-01-17T17:36:26.283Z,2.70
2023-01-17T17:38:56.603Z,2.70
2023-01-17T17:41:24.636Z,2.70
2023-01-17T17:43:52.058Z,2.70
2023-01-17T17:46:19.492Z,2.70
2023-01-17T17:48:46.636Z,2.70
2023-01-17T17:51:27.227Z,2.70
2023-01-17T17:53:54.849Z,2.70
2023-01-17T17:56:24.688Z,2.80
2023-01-17T17:58:51.443Z,2.80
2023-01-17T18:01:18.245Z,2.80
2023-01-17T18:03:44.970Z,2.80
2023-01-17T18:06:12.199Z,2.70
2023-01-17T18:08:40.977Z,2.70
2023-01-17T18:11:11.152Z,2.80
2023-01-17T18:13:38.837Z,2.80
2023-01-17T18:16:13.097Z,2.80
2023-01-17T18:18:41.644Z,2.70
2023-01-17T18:21:12.287Z,2.70
2023-01-17T18:23:39.853Z,2.60
2023-01-17T18:26:07.190Z,2.50
2023-01-17T18:28:33.896Z,2.60
2023-01-17T18:31:06.945Z,2.50
2023-01-17T18:33:38.726Z,2.60
2023-01-17T18:36:06.383Z,2.60
2023-01-17T18:38:40.504Z,2.60
2023-01-17T18:41:08.220Z,2.60
2023-01-17T18:43:35.173Z,2.60
2023-01-17T18:46:02.194Z,2.60
2023-01-17T18:48:28.869Z,2.60
2023-01-17T18:50:59.297Z,2.70
2023-01-17T18:53:27.099Z,2.70
2023-01-17T18:55:56.973Z,2.60
2023-01-17T18:58:24.788Z,2.60
2023-01-17T19:00:52.690Z,2.50
2023-01-17T19:03:22.653Z,2.50
2023-01-17T19:05:49.313Z,2.60
2023-01-17T19:08:16.418Z,2.50
2023-01-17T19:10:46.543Z,2.50
2023-01-17T19:13:13.228Z,2.50
2023-01-17T19:15:43.961Z,2.50
2023-01-17T19:21:39.379Z,2.60
2023-01-17T19:24:14.357Z,2.60
2023-01-17T19:27:57.981Z,2.60
2023-01-17T19:29:42.483Z,2.60
2023-01-17T19:35:54.106Z,2.50
2023-01-17T19:38:47.415Z,2.60
2023-01-17T19:45:02.029Z,2.70
2023-01-17T19:47:28.701Z,2.60
2023-01-17T19:50:08.190Z,2.70
2023-01-17T19:59:01.623Z,2.80
2023-01-17T20:04:56.371Z,2.70
2023-01-17T20:05:36.708Z,2.70
2023-01-17T20:24:33.373Z,2.70
2023-01-17T20:36:45.641Z,2.70
2023-01-17T20:39:16.101Z,2.70
2023-01-17T20:41:43.941Z,2.60
2023-01-17T20:44:56.152Z,2.70
2023-01-17T20:47:37.223Z,2.70
2023-01-17T20:50:05.540Z,2.70
2023-01-17T20:54:15.207Z,2.70
2023-01-17T20:55:28.024Z,2.70
2023-01-17T20:57:55.014Z,2.70
2023-01-17T21:00:21.978Z,2.60
2023-01-17T21:03:00.853Z,2.60
2023-01-17T21:06:05.073Z,2.60
2023-01-17T21:09:10.576Z,2.70
2023-01-17T21:11:37.742Z,2.60
2023-01-17T21:24:58.262Z,2.50
2023-01-17T21:27:22.820Z,2.50
2023-01-17T21:29:49.579Z,2.50
2023-01-17T21:42:44.909Z,2.50
2023-01-17T21:45:11.592Z,2.40
2023-01-17T21:54:49.355Z,2.50
2023-01-17T21:57:44.409Z,2.50
2023-01-17T22:00:14.553Z,2.40
2023-01-17T22:03:07.318Z,2.40
2023-01-17T22:06:24.857Z,2.50
2023-01-17T22:19:39.136Z,2.50
2023-01-17T22:22:05.727Z,2.50
2023-01-17T22:24:32.343Z,2.50
2023-01-17T22:27:00.048Z,2.50
2023-01-17T22:29:26.957Z,2.50
2023-01-17T22:31:53.573Z,2.40
2023-01-17T22:34:20.299Z,2.40
2023-01-17T22:36:46.922Z,2.50
2023-01-17T22:39:13.548Z,2.40
2023-01-17T22:41:40.163Z,2.40
2023-01-17T22:44:07.582Z,2.40
2023-01-17T22:46:35.808Z,2.40
2023-01-17T22:49:02.713Z,2.50
2023-01-17T22:51:29.640Z,2.40
2023-01-17T22:53:57.365Z,2.40
2023-01-17T22:56:26.439Z,2.50
2023-01-17T22:58:53.344Z,2.50
2023-01-17T23:01:24.191Z,2.50
2023-01-17T23:03:53.835Z,2.50
2023-01-17T23:06:21.934Z,2.60
2023-01-17T23:08:49.996Z,2.60
2023-01-17T23:11:39.058Z,2.60
2023-01-17T23:14:09.399Z,2.60
2023-01-17T23:16:55.191Z,2.60
2023-01-17T23:19:24.600Z,2.60
2023-01-17T23:22:11.044Z,2.60
2023-01-17T23:25:00.527Z,2.60
2023-01-17T23:27:48.868Z,2.60
2023-01-17T23:30:35.487Z,2.60
2023-01-17T23:33:03.101Z,2.60
2023-01-17T23:35:31.080Z,2.60
2023-01-17T23:38:22.775Z,2.60
2023-01-17T23:41:08.148Z,2.60
2023-01-17T23:43:35.135Z,2.60
2023-01-17T23:46:05.143Z,2.60
2023-01-17T23:48:31.947Z,2.60
2023-01-17T23:50:59.616Z,2.70
2023-01-17T23:53:26.931Z,2.60
2023-01-17T23:55:55.567Z,2.60
2023-01-17T23:58:23.603Z,2.70
